sensor_id;sensor_type;location;lat;lon;timestamp;P1;durP1;ratioP1;P2;durP2;ratioP2
43114;SDS011;28727;50.068;14.452;2022-08-02T00:02:23;93.93;;;89.43;;
43114;SDS011;28727;50.068;14.452;2022-08-02T00:04:55;93.27;;;88.90;;
43114;SDS011;28727;50.068;14.452;2022-08-02T00:07:27;92.17;;;87.77;;
43114;SDS011;28727;50.068;14.452;2022-08-02T00:10:02;94.63;;;90.13;;
43114;SDS011;28727;50.068;14.452;2022-08-02T00:12:37;98.27;;;93.67;;
43114;SDS011;28727;50.068;14.452;2022-08-02T00:15:10;100.10;;;95.37;;
43114;SDS011;28727;50.068;14.452;2022-08-02T00:17:46;91.67;;;87.37;;
43114;SDS011;28727;50.068;14.452;2022-08-02T00:20:19;92.43;;;88.17;;
43114;SDS011;28727;50.068;14.452;2022-08-02T00:22:51;94.20;;;89.70;;
43114;SDS011;28727;50.068;14.452;2022-08-02T00:25:33;96.90;;;92.33;;
43114;SDS011;28727;50.068;14.452;2022-08-02T00:28:04;99.17;;;94.47;;
43114;SDS011;28727;50.068;14.452;2022-08-02T00:30:36;96.13;;;91.63;;
43114;SDS011;28727;50.068;14.452;2022-08-02T00:33:08;93.17;;;88.70;;
43114;SDS011;28727;50.068;14.452;2022-08-02T00:35:43;97.97;;;93.33;;
43114;SDS011;28727;50.068;14.452;2022-08-02T00:38:17;94.03;;;89.63;;
43114;SDS011;28727;50.068;14.452;2022-08-02T00:40:49;93.73;;;89.33;;
43114;SDS011;28727;50.068;14.452;2022-08-02T00:43:28;90.40;;;86.17;;
43114;SDS011;28727;50.068;14.452;2022-08-02T00:45:59;91.60;;;87.33;;
43114;SDS011;28727;50.068;14.452;2022-08-02T00:51:12;93.03;;;88.70;;
43114;SDS011;28727;50.068;14.452;2022-08-02T00:53:44;90.90;;;86.60;;
43114;SDS011;28727;50.068;14.452;2022-08-02T00:56:15;95.73;;;91.23;;
43114;SDS011;28727;50.068;14.452;2022-08-02T00:58:47;88.90;;;84.77;;
43114;SDS011;28727;50.068;14.452;2022-08-02T01:01:24;412.15;;;248.77;;
43114;SDS011;28727;50.068;14.452;2022-08-02T01:04:27;306.37;;;198.97;;
43114;SDS011;28727;50.068;14.452;2022-08-02T01:07:01;414.10;;;251.43;;
43114;SDS011;28727;50.068;14.452;2022-08-02T01:09:44;193.10;;;153.52;;
43114;SDS011;28727;50.068;14.452;2022-08-02T01:12:17;413.20;;;246.93;;
43114;SDS011;28727;50.068;14.452;2022-08-02T01:14:51;413.92;;;249.55;;
43114;SDS011;28727;50.068;14.452;2022-08-02T01:26:38;413.83;;;248.37;;
43114;SDS011;28727;50.068;14.452;2022-08-02T01:29:30;415.27;;;248.23;;
43114;SDS011;28727;50.068;14.452;2022-08-02T01:32:08;132.20;;;119.03;;
43114;SDS011;28727;50.068;14.452;2022-08-02T01:34:58;414.40;;;248.17;;
43114;SDS011;28727;50.068;14.452;2022-08-02T01:37:38;91.50;;;87.17;;
43114;SDS011;28727;50.068;14.452;2022-08-02T01:40:21;91.57;;;87.20;;
43114;SDS011;28727;50.068;14.452;2022-08-02T01:42:57;96.33;;;91.73;;
43114;SDS011;28727;50.068;14.452;2022-08-02T01:45:32;93.45;;;89.07;;
43114;SDS011;28727;50.068;14.452;2022-08-02T01:48:06;96.23;;;91.63;;
43114;SDS011;28727;50.068;14.452;2022-08-02T01:50:42;96.67;;;92.07;;
43114;SDS011;28727;50.068;14.452;2022-08-02T01:53:19;91.33;;;87.07;;
43114;SDS011;28727;50.068;14.452;2022-08-02T01:55:53;94.43;;;89.93;;
43114;SDS011;28727;50.068;14.452;2022-08-02T01:58:30;93.27;;;88.87;;
43114;SDS011;28727;50.068;14.452;2022-08-02T02:01:07;93.83;;;89.43;;
43114;SDS011;28727;50.068;14.452;2022-08-02T02:03:46;93.50;;;89.13;;
43114;SDS011;28727;50.068;14.452;2022-08-02T02:06:19;92.03;;;87.70;;
43114;SDS011;28727;50.068;14.452;2022-08-02T02:08:53;92.03;;;87.60;;
43114;SDS011;28727;50.068;14.452;2022-08-02T02:11:26;94.00;;;89.50;;
43114;SDS011;28727;50.068;14.452;2022-08-02T02:14:17;96.00;;;91.50;;
43114;SDS011;28727;50.068;14.452;2022-08-02T02:16:51;95.27;;;90.80;;
43114;SDS011;28727;50.068;14.452;2022-08-02T02:19:27;93.13;;;88.77;;
43114;SDS011;28727;50.068;14.452;2022-08-02T02:21:59;92.07;;;87.63;;
43114;SDS011;28727;50.068;14.452;2022-08-02T02:24:32;94.53;;;90.03;;
43114;SDS011;28727;50.068;14.452;2022-08-02T02:27:07;92.57;;;88.23;;
43114;SDS011;28727;50.068;14.452;2022-08-02T02:29:46;91.97;;;87.67;;
43114;SDS011;28727;50.068;14.452;2022-08-02T02:32:22;92.20;;;87.77;;
43114;SDS011;28727;50.068;14.452;2022-08-02T02:34:57;97.30;;;92.70;;
43114;SDS011;28727;50.068;14.452;2022-08-02T02:37:31;98.03;;;93.30;;
43114;SDS011;28727;50.068;14.452;2022-08-02T02:40:05;96.93;;;92.32;;
43114;SDS011;28727;50.068;14.452;2022-08-02T02:42:39;98.55;;;93.85;;
43114;SDS011;28727;50.068;14.452;2022-08-02T02:45:19;97.73;;;93.10;;
43114;SDS011;28727;50.068;14.452;2022-08-02T02:47:52;100.40;;;95.57;;
43114;SDS011;28727;50.068;14.452;2022-08-02T02:50:26;101.07;;;96.22;;
43114;SDS011;28727;50.068;14.452;2022-08-02T02:52:58;102.10;;;97.30;;
43114;SDS011;28727;50.068;14.452;2022-08-02T02:55:31;101.20;;;96.37;;
43114;SDS011;28727;50.068;14.452;2022-08-02T02:58:04;100.87;;;96.07;;
43114;SDS011;28727;50.068;14.452;2022-08-02T03:00:43;98.73;;;93.97;;
43114;SDS011;28727;50.068;14.452;2022-08-02T03:03:34;98.00;;;93.30;;
43114;SDS011;28727;50.068;14.452;2022-08-02T03:06:06;105.87;;;100.77;;
43114;SDS011;28727;50.068;14.452;2022-08-02T03:08:46;100.37;;;95.50;;
43114;SDS011;28727;50.068;14.452;2022-08-02T03:11:18;100.70;;;95.90;;
43114;SDS011;28727;50.068;14.452;2022-08-02T03:13:50;103.57;;;98.57;;
43114;SDS011;28727;50.068;14.452;2022-08-02T03:16:24;105.35;;;100.25;;
43114;SDS011;28727;50.068;14.452;2022-08-02T03:21:32;99.83;;;94.93;;
43114;SDS011;28727;50.068;14.452;2022-08-02T03:24:04;103.47;;;98.47;;
43114;SDS011;28727;50.068;14.452;2022-08-02T03:26:40;98.90;;;94.10;;
43114;SDS011;28727;50.068;14.452;2022-08-02T03:29:12;101.33;;;96.30;;
43114;SDS011;28727;50.068;14.452;2022-08-02T03:31:48;98.90;;;94.10;;
43114;SDS011;28727;50.068;14.452;2022-08-02T03:34:21;277.13;;;180.00;;
43114;SDS011;28727;50.068;14.452;2022-08-02T03:36:56;404.37;;;230.80;;
43114;SDS011;28727;50.068;14.452;2022-08-02T03:39:34;403.70;;;227.87;;
43114;SDS011;28727;50.068;14.452;2022-08-02T03:42:06;403.83;;;230.90;;
43114;SDS011;28727;50.068;14.452;2022-08-02T03:44:46;403.10;;;229.10;;
43114;SDS011;28727;50.068;14.452;2022-08-02T03:47:19;405.00;;;230.50;;
43114;SDS011;28727;50.068;14.452;2022-08-02T03:49:52;103.27;;;98.27;;
43114;SDS011;28727;50.068;14.452;2022-08-02T03:52:28;99.43;;;94.53;;
43114;SDS011;28727;50.068;14.452;2022-08-02T03:55:02;103.78;;;98.78;;
43114;SDS011;28727;50.068;14.452;2022-08-02T03:57:36;99.73;;;94.90;;
43114;SDS011;28727;50.068;14.452;2022-08-02T04:00:10;102.43;;;97.43;;
43114;SDS011;28727;50.068;14.452;2022-08-02T04:02:48;99.30;;;94.50;;
43114;SDS011;28727;50.068;14.452;2022-08-02T04:05:20;104.47;;;99.47;;
43114;SDS011;28727;50.068;14.452;2022-08-02T04:07:52;98.70;;;93.90;;
43114;SDS011;28727;50.068;14.452;2022-08-02T04:10:43;104.20;;;99.10;;
43114;SDS011;28727;50.068;14.452;2022-08-02T04:13:35;101.80;;;96.57;;
43114;SDS011;28727;50.068;14.452;2022-08-02T04:19:02;100.03;;;95.23;;
43114;SDS011;28727;50.068;14.452;2022-08-02T04:21:36;96.80;;;92.03;;
43114;SDS011;28727;50.068;14.452;2022-08-02T04:24:25;97.83;;;93.07;;
43114;SDS011;28727;50.068;14.452;2022-08-02T04:27:04;104.17;;;98.90;;
43114;SDS011;28727;50.068;14.452;2022-08-02T04:29:58;100.80;;;95.73;;
43114;SDS011;28727;50.068;14.452;2022-08-02T04:32:31;99.27;;;94.30;;
43114;SDS011;28727;50.068;14.452;2022-08-02T04:35:03;101.50;;;96.60;;
43114;SDS011;28727;50.068;14.452;2022-08-02T04:37:51;100.37;;;95.47;;
43114;SDS011;28727;50.068;14.452;2022-08-02T04:40:48;100.43;;;95.53;;
43114;SDS011;28727;50.068;14.452;2022-08-02T04:43:24;98.07;;;93.27;;
43114;SDS011;28727;50.068;14.452;2022-08-02T04:45:58;101.70;;;96.70;;
43114;SDS011;28727;50.068;14.452;2022-08-02T04:48:32;100.57;;;95.67;;
43114;SDS011;28727;50.068;14.452;2022-08-02T04:51:04;118.60;;;112.00;;
43114;SDS011;28727;50.068;14.452;2022-08-02T04:53:36;97.83;;;93.03;;
43114;SDS011;28727;50.068;14.452;2022-08-02T04:56:08;100.17;;;95.17;;
43114;SDS011;28727;50.068;14.452;2022-08-02T04:58:41;96.83;;;92.13;;
43114;SDS011;28727;50.068;14.452;2022-08-02T05:01:15;97.95;;;93.20;;
43114;SDS011;28727;50.068;14.452;2022-08-02T05:03:47;99.73;;;94.70;;
43114;SDS011;28727;50.068;14.452;2022-08-02T05:06:18;100.80;;;95.83;;
43114;SDS011;28727;50.068;14.452;2022-08-02T05:08:50;99.47;;;94.67;;
43114;SDS011;28727;50.068;14.452;2022-08-02T05:11:23;103.10;;;98.10;;
43114;SDS011;28727;50.068;14.452;2022-08-02T05:14:07;103.03;;;98.03;;
43114;SDS011;28727;50.068;14.452;2022-08-02T05:16:39;101.00;;;96.07;;
43114;SDS011;28727;50.068;14.452;2022-08-02T05:19:10;102.63;;;97.53;;
43114;SDS011;28727;50.068;14.452;2022-08-02T05:21:42;102.73;;;97.63;;
43114;SDS011;28727;50.068;14.452;2022-08-02T05:24:14;103.97;;;98.97;;
43114;SDS011;28727;50.068;14.452;2022-08-02T05:26:45;104.47;;;99.20;;
43114;SDS011;28727;50.068;14.452;2022-08-02T05:29:17;105.53;;;100.40;;
43114;SDS011;28727;50.068;14.452;2022-08-02T05:31:51;99.43;;;94.63;;
43114;SDS011;28727;50.068;14.452;2022-08-02T05:34:23;105.43;;;100.33;;
43114;SDS011;28727;50.068;14.452;2022-08-02T05:36:55;104.07;;;98.97;;
43114;SDS011;28727;50.068;14.452;2022-08-02T05:39:30;106.93;;;101.53;;
43114;SDS011;28727;50.068;14.452;2022-08-02T05:42:02;99.73;;;94.97;;
43114;SDS011;28727;50.068;14.452;2022-08-02T05:44:34;104.97;;;99.90;;
43114;SDS011;28727;50.068;14.452;2022-08-02T05:47:06;99.47;;;94.67;;
43114;SDS011;28727;50.068;14.452;2022-08-02T05:49:37;104.07;;;99.13;;
43114;SDS011;28727;50.068;14.452;2022-08-02T05:52:16;101.93;;;97.00;;
43114;SDS011;28727;50.068;14.452;2022-08-02T05:58:02;109.30;;;104.00;;
43114;SDS011;28727;50.068;14.452;2022-08-02T06:00:42;105.47;;;100.47;;
43114;SDS011;28727;50.068;14.452;2022-08-02T06:08:44;104.20;;;99.30;;
43114;SDS011;28727;50.068;14.452;2022-08-02T06:11:21;104.40;;;99.37;;
43114;SDS011;28727;50.068;14.452;2022-08-02T06:13:56;105.57;;;100.55;;
43114;SDS011;28727;50.068;14.452;2022-08-02T06:16:34;105.27;;;100.23;;
43114;SDS011;28727;50.068;14.452;2022-08-02T06:19:12;99.60;;;94.90;;
43114;SDS011;28727;50.068;14.452;2022-08-02T06:21:44;106.37;;;101.47;;
43114;SDS011;28727;50.068;14.452;2022-08-02T06:24:36;107.77;;;102.80;;
43114;SDS011;28727;50.068;14.452;2022-08-02T06:27:08;107.10;;;102.13;;
43114;SDS011;28727;50.068;14.452;2022-08-02T06:29:44;105.60;;;100.63;;
43114;SDS011;28727;50.068;14.452;2022-08-02T06:32:19;106.77;;;101.83;;
43114;SDS011;28727;50.068;14.452;2022-08-02T06:34:51;108.60;;;103.53;;
43114;SDS011;28727;50.068;14.452;2022-08-02T06:37:25;110.23;;;105.03;;
43114;SDS011;28727;50.068;14.452;2022-08-02T06:40:13;110.13;;;105.00;;
43114;SDS011;28727;50.068;14.452;2022-08-02T06:45:44;115.20;;;109.73;;
43114;SDS011;28727;50.068;14.452;2022-08-02T06:48:16;109.10;;;104.10;;
43114;SDS011;28727;50.068;14.452;2022-08-02T06:50:48;110.63;;;105.53;;
43114;SDS011;28727;50.068;14.452;2022-08-02T06:53:19;111.60;;;106.37;;
43114;SDS011;28727;50.068;14.452;2022-08-02T06:55:51;113.00;;;107.70;;
43114;SDS011;28727;50.068;14.452;2022-08-02T06:58:23;117.57;;;112.17;;
43114;SDS011;28727;50.068;14.452;2022-08-02T07:00:54;113.13;;;107.93;;
43114;SDS011;28727;50.068;14.452;2022-08-02T07:03:27;112.90;;;107.77;;
43114;SDS011;28727;50.068;14.452;2022-08-02T07:05:58;110.47;;;105.30;;
43114;SDS011;28727;50.068;14.452;2022-08-02T07:08:30;113.67;;;108.37;;
43114;SDS011;28727;50.068;14.452;2022-08-02T07:11:04;117.20;;;111.70;;
43114;SDS011;28727;50.068;14.452;2022-08-02T07:13:36;119.10;;;113.50;;
43114;SDS011;28727;50.068;14.452;2022-08-02T07:16:10;114.03;;;108.75;;
43114;SDS011;28727;50.068;14.452;2022-08-02T07:18:42;114.03;;;108.73;;
43114;SDS011;28727;50.068;14.452;2022-08-02T07:21:13;111.87;;;106.67;;
43114;SDS011;28727;50.068;14.452;2022-08-02T07:23:46;110.60;;;105.53;;
43114;SDS011;28727;50.068;14.452;2022-08-02T07:26:17;116.53;;;111.03;;
43114;SDS011;28727;50.068;14.452;2022-08-02T07:28:49;115.43;;;110.13;;
43114;SDS011;28727;50.068;14.452;2022-08-02T07:31:21;114.23;;;109.03;;
43114;SDS011;28727;50.068;14.452;2022-08-02T07:33:53;116.73;;;111.33;;
43114;SDS011;28727;50.068;14.452;2022-08-02T07:36:24;116.43;;;111.10;;
43114;SDS011;28727;50.068;14.452;2022-08-02T07:38:56;114.77;;;109.43;;
43114;SDS011;28727;50.068;14.452;2022-08-02T07:41:28;119.57;;;113.97;;
43114;SDS011;28727;50.068;14.452;2022-08-02T07:44:00;113.37;;;107.97;;
43114;SDS011;28727;50.068;14.452;2022-08-02T07:46:32;114.83;;;109.63;;
43114;SDS011;28727;50.068;14.452;2022-08-02T07:49:04;113.70;;;108.53;;
43114;SDS011;28727;50.068;14.452;2022-08-02T07:51:35;113.90;;;108.60;;
43114;SDS011;28727;50.068;14.452;2022-08-02T07:54:07;114.53;;;109.20;;
43114;SDS011;28727;50.068;14.452;2022-08-02T07:56:40;113.37;;;108.23;;
43114;SDS011;28727;50.068;14.452;2022-08-02T07:59:12;110.80;;;105.67;;
43114;SDS011;28727;50.068;14.452;2022-08-02T08:01:43;112.60;;;107.30;;
43114;SDS011;28727;50.068;14.452;2022-08-02T08:04:16;115.60;;;110.37;;
43114;SDS011;28727;50.068;14.452;2022-08-02T08:06:48;113.17;;;108.03;;
43114;SDS011;28727;50.068;14.452;2022-08-02T08:09:22;112.68;;;107.47;;
43114;SDS011;28727;50.068;14.452;2022-08-02T08:11:54;113.47;;;108.17;;
43114;SDS011;28727;50.068;14.452;2022-08-02T08:14:25;112.23;;;106.93;;
43114;SDS011;28727;50.068;14.452;2022-08-02T08:16:57;113.70;;;108.50;;
43114;SDS011;28727;50.068;14.452;2022-08-02T08:19:31;116.95;;;111.53;;
43114;SDS011;28727;50.068;14.452;2022-08-02T08:22:21;115.23;;;109.87;;
43114;SDS011;28727;50.068;14.452;2022-08-02T08:24:53;116.47;;;111.05;;
43114;SDS011;28727;50.068;14.452;2022-08-02T08:27:25;119.32;;;113.65;;
43114;SDS011;28727;50.068;14.452;2022-08-02T08:29:57;114.28;;;108.93;;
43114;SDS011;28727;50.068;14.452;2022-08-02T08:32:28;113.47;;;108.10;;
43114;SDS011;28727;50.068;14.452;2022-08-02T08:35:02;118.25;;;112.57;;
43114;SDS011;28727;50.068;14.452;2022-08-02T08:37:37;117.53;;;112.07;;
43114;SDS011;28727;50.068;14.452;2022-08-02T08:40:10;113.03;;;107.78;;
43114;SDS011;28727;50.068;14.452;2022-08-02T08:42:42;110.93;;;105.82;;
43114;SDS011;28727;50.068;14.452;2022-08-02T08:45:14;112.55;;;107.45;;
43114;SDS011;28727;50.068;14.452;2022-08-02T08:47:51;111.63;;;106.53;;
43114;SDS011;28727;50.068;14.452;2022-08-02T08:50:32;116.32;;;111.03;;
43114;SDS011;28727;50.068;14.452;2022-08-02T08:53:07;112.47;;;107.35;;
43114;SDS011;28727;50.068;14.452;2022-08-02T08:55:42;117.88;;;112.40;;
43114;SDS011;28727;50.068;14.452;2022-08-02T08:58:15;114.97;;;109.63;;
43114;SDS011;28727;50.068;14.452;2022-08-02T09:00:47;113.28;;;107.65;;
43114;SDS011;28727;50.068;14.452;2022-08-02T09:03:21;111.87;;;106.87;;
43114;SDS011;28727;50.068;14.452;2022-08-02T09:05:53;109.80;;;104.90;;
43114;SDS011;28727;50.068;14.452;2022-08-02T09:08:29;113.28;;;108.20;;
43114;SDS011;28727;50.068;14.452;2022-08-02T09:11:01;110.77;;;105.53;;
43114;SDS011;28727;50.068;14.452;2022-08-02T09:13:50;116.67;;;111.27;;
43114;SDS011;28727;50.068;14.452;2022-08-02T09:16:34;112.88;;;107.47;;
43114;SDS011;28727;50.068;14.452;2022-08-02T09:19:17;114.27;;;108.67;;
43114;SDS011;28727;50.068;14.452;2022-08-02T09:21:51;113.00;;;107.90;;
43114;SDS011;28727;50.068;14.452;2022-08-02T09:24:45;112.27;;;107.07;;
43114;SDS011;28727;50.068;14.452;2022-08-02T09:27:21;110.40;;;105.27;;
43114;SDS011;28727;50.068;14.452;2022-08-02T09:29:53;113.57;;;108.27;;
43114;SDS011;28727;50.068;14.452;2022-08-02T09:32:44;111.30;;;106.13;;
43114;SDS011;28727;50.068;14.452;2022-08-02T09:35:34;113.80;;;108.50;;
43114;SDS011;28727;50.068;14.452;2022-08-02T09:38:27;113.70;;;108.33;;
43114;SDS011;28727;50.068;14.452;2022-08-02T09:40:59;115.57;;;110.03;;
43114;SDS011;28727;50.068;14.452;2022-08-02T09:43:35;111.60;;;106.40;;
43114;SDS011;28727;50.068;14.452;2022-08-02T09:46:29;112.50;;;107.30;;
43114;SDS011;28727;50.068;14.452;2022-08-02T09:49:04;111.03;;;105.90;;
43114;SDS011;28727;50.068;14.452;2022-08-02T09:54:18;113.53;;;108.30;;
43114;SDS011;28727;50.068;14.452;2022-08-02T09:56:57;112.23;;;106.83;;
43114;SDS011;28727;50.068;14.452;2022-08-02T09:59:30;109.97;;;104.87;;
43114;SDS011;28727;50.068;14.452;2022-08-02T10:02:07;107.43;;;102.47;;
43114;SDS011;28727;50.068;14.452;2022-08-02T10:04:51;112.37;;;107.13;;
43114;SDS011;28727;50.068;14.452;2022-08-02T10:07:24;106.93;;;101.83;;
43114;SDS011;28727;50.068;14.452;2022-08-02T10:09:56;106.53;;;101.50;;
43114;SDS011;28727;50.068;14.452;2022-08-02T10:12:28;106.73;;;101.80;;
43114;SDS011;28727;50.068;14.452;2022-08-02T10:15:00;111.73;;;106.50;;
43114;SDS011;28727;50.068;14.452;2022-08-02T10:17:32;106.00;;;101.13;;
43114;SDS011;28727;50.068;14.452;2022-08-02T10:20:05;114.97;;;109.47;;
43114;SDS011;28727;50.068;14.452;2022-08-02T10:22:37;113.50;;;108.17;;
43114;SDS011;28727;50.068;14.452;2022-08-02T10:25:11;112.30;;;107.00;;
43114;SDS011;28727;50.068;14.452;2022-08-02T10:27:43;116.10;;;110.60;;
43114;SDS011;28727;50.068;14.452;2022-08-02T10:30:35;112.83;;;107.63;;
43114;SDS011;28727;50.068;14.452;2022-08-02T10:33:09;111.73;;;106.40;;
43114;SDS011;28727;50.068;14.452;2022-08-02T10:35:43;115.85;;;110.40;;
43114;SDS011;28727;50.068;14.452;2022-08-02T10:38:34;114.20;;;108.83;;
43114;SDS011;28727;50.068;14.452;2022-08-02T10:41:07;115.17;;;109.70;;
43114;SDS011;28727;50.068;14.452;2022-08-02T10:43:39;113.17;;;108.07;;
43114;SDS011;28727;50.068;14.452;2022-08-02T10:46:29;113.37;;;108.07;;
43114;SDS011;28727;50.068;14.452;2022-08-02T10:49:16;114.13;;;108.80;;
43114;SDS011;28727;50.068;14.452;2022-08-02T10:52:12;115.70;;;110.35;;
43114;SDS011;28727;50.068;14.452;2022-08-02T10:54:47;110.23;;;105.13;;
43114;SDS011;28727;50.068;14.452;2022-08-02T10:57:30;110.33;;;105.13;;
43114;SDS011;28727;50.068;14.452;2022-08-02T11:02:50;118.27;;;112.77;;
43114;SDS011;28727;50.068;14.452;2022-08-02T11:05:28;113.03;;;107.73;;
43114;SDS011;28727;50.068;14.452;2022-08-02T11:08:20;119.07;;;113.50;;
43114;SDS011;28727;50.068;14.452;2022-08-02T11:10:56;114.73;;;109.27;;
43114;SDS011;28727;50.068;14.452;2022-08-02T11:13:59;111.80;;;106.63;;
43114;SDS011;28727;50.068;14.452;2022-08-02T11:19:27;111.43;;;106.33;;
43114;SDS011;28727;50.068;14.452;2022-08-02T11:22:06;113.13;;;107.80;;
43114;SDS011;28727;50.068;14.452;2022-08-02T11:24:42;111.67;;;106.53;;
43114;SDS011;28727;50.068;14.452;2022-08-02T11:27:17;115.33;;;109.80;;
43114;SDS011;28727;50.068;14.452;2022-08-02T11:29:52;114.03;;;108.73;;
43114;SDS011;28727;50.068;14.452;2022-08-02T11:32:24;112.03;;;106.93;;
43114;SDS011;28727;50.068;14.452;2022-08-02T11:35:01;113.60;;;108.43;;
43114;SDS011;28727;50.068;14.452;2022-08-02T11:40:10;112.88;;;107.82;;
43114;SDS011;28727;50.068;14.452;2022-08-02T11:42:50;112.25;;;107.05;;
43114;SDS011;28727;50.068;14.452;2022-08-02T11:45:24;110.05;;;104.95;;
43114;SDS011;28727;50.068;14.452;2022-08-02T11:48:00;113.63;;;108.40;;
43114;SDS011;28727;50.068;14.452;2022-08-02T11:50:32;113.33;;;108.00;;
43114;SDS011;28727;50.068;14.452;2022-08-02T11:53:14;109.93;;;104.83;;
43114;SDS011;28727;50.068;14.452;2022-08-02T11:55:46;112.63;;;107.43;;
43114;SDS011;28727;50.068;14.452;2022-08-02T11:58:18;108.00;;;102.90;;
43114;SDS011;28727;50.068;14.452;2022-08-02T12:00:49;115.67;;;110.20;;
43114;SDS011;28727;50.068;14.452;2022-08-02T12:03:24;106.40;;;101.47;;
43114;SDS011;28727;50.068;14.452;2022-08-02T12:05:55;113.50;;;108.20;;
43114;SDS011;28727;50.068;14.452;2022-08-02T12:08:37;107.90;;;102.90;;
43114;SDS011;28727;50.068;14.452;2022-08-02T12:11:08;110.10;;;105.07;;
43114;SDS011;28727;50.068;14.452;2022-08-02T12:13:41;111.10;;;105.83;;
43114;SDS011;28727;50.068;14.452;2022-08-02T12:19:07;111.03;;;105.77;;
43114;SDS011;28727;50.068;14.452;2022-08-02T12:24:41;111.00;;;105.90;;
43114;SDS011;28727;50.068;14.452;2022-08-02T12:27:31;112.60;;;107.40;;
43114;SDS011;28727;50.068;14.452;2022-08-02T12:32:41;109.67;;;104.60;;
43114;SDS011;28727;50.068;14.452;2022-08-02T12:35:14;111.97;;;106.73;;
43114;SDS011;28727;50.068;14.452;2022-08-02T12:37:57;111.93;;;106.80;;
43114;SDS011;28727;50.068;14.452;2022-08-02T12:40:40;110.00;;;104.90;;
43114;SDS011;28727;50.068;14.452;2022-08-02T12:43:30;111.47;;;106.27;;
43114;SDS011;28727;50.068;14.452;2022-08-02T12:46:02;112.00;;;106.80;;
43114;SDS011;28727;50.068;14.452;2022-08-02T12:48:37;110.37;;;105.27;;
43114;SDS011;28727;50.068;14.452;2022-08-02T12:51:35;114.07;;;108.77;;
43114;SDS011;28727;50.068;14.452;2022-08-02T12:54:37;108.63;;;103.53;;
43114;SDS011;28727;50.068;14.452;2022-08-02T12:57:11;109.13;;;104.13;;
43114;SDS011;28727;50.068;14.452;2022-08-02T13:02:23;115.73;;;110.20;;
43114;SDS011;28727;50.068;14.452;2022-08-02T13:04:57;114.17;;;108.80;;
43114;SDS011;28727;50.068;14.452;2022-08-02T13:07:30;114.40;;;109.10;;
43114;SDS011;28727;50.068;14.452;2022-08-02T13:10:02;113.17;;;107.97;;
43114;SDS011;28727;50.068;14.452;2022-08-02T13:12:34;110.13;;;104.93;;
43114;SDS011;28727;50.068;14.452;2022-08-02T13:15:07;111.05;;;105.82;;
43114;SDS011;28727;50.068;14.452;2022-08-02T13:18:00;108.93;;;103.83;;
43114;SDS011;28727;50.068;14.452;2022-08-02T13:20:32;109.67;;;104.53;;
43114;SDS011;28727;50.068;14.452;2022-08-02T13:23:04;110.27;;;105.00;;
43114;SDS011;28727;50.068;14.452;2022-08-02T13:25:36;109.13;;;103.93;;
43114;SDS011;28727;50.068;14.452;2022-08-02T13:28:08;107.17;;;102.30;;
43114;SDS011;28727;50.068;14.452;2022-08-02T13:30:39;112.37;;;107.07;;
43114;SDS011;28727;50.068;14.452;2022-08-02T13:33:11;105.47;;;100.57;;
43114;SDS011;28727;50.068;14.452;2022-08-02T13:35:43;106.27;;;101.27;;
43114;SDS011;28727;50.068;14.452;2022-08-02T13:38:16;109.07;;;103.93;;
43114;SDS011;28727;50.068;14.452;2022-08-02T13:40:53;109.60;;;104.50;;
43114;SDS011;28727;50.068;14.452;2022-08-02T13:43:39;108.73;;;103.73;;
43114;SDS011;28727;50.068;14.452;2022-08-02T13:46:25;107.80;;;102.87;;
43114;SDS011;28727;50.068;14.452;2022-08-02T13:48:59;111.53;;;106.23;;
43114;SDS011;28727;50.068;14.452;2022-08-02T13:51:32;106.93;;;102.00;;
43114;SDS011;28727;50.068;14.452;2022-08-02T13:54:07;109.53;;;104.40;;
43114;SDS011;28727;50.068;14.452;2022-08-02T13:56:39;106.13;;;101.23;;
43114;SDS011;28727;50.068;14.452;2022-08-02T13:59:10;108.90;;;103.80;;
43114;SDS011;28727;50.068;14.452;2022-08-02T14:02:02;108.63;;;103.53;;
43114;SDS011;28727;50.068;14.452;2022-08-02T14:04:34;110.13;;;105.07;;
43114;SDS011;28727;50.068;14.452;2022-08-02T14:07:07;108.30;;;103.30;;
43114;SDS011;28727;50.068;14.452;2022-08-02T14:09:38;107.33;;;102.43;;
43114;SDS011;28727;50.068;14.452;2022-08-02T14:12:11;111.27;;;105.93;;
43114;SDS011;28727;50.068;14.452;2022-08-02T14:14:43;113.73;;;108.43;;
43114;SDS011;28727;50.068;14.452;2022-08-02T14:17:16;108.35;;;103.15;;
43114;SDS011;28727;50.068;14.452;2022-08-02T14:19:49;107.93;;;102.90;;
43114;SDS011;28727;50.068;14.452;2022-08-02T14:22:21;109.57;;;104.50;;
43114;SDS011;28727;50.068;14.452;2022-08-02T14:24:56;108.73;;;103.63;;
43114;SDS011;28727;50.068;14.452;2022-08-02T14:27:39;110.43;;;105.23;;
43114;SDS011;28727;50.068;14.452;2022-08-02T14:30:10;112.43;;;107.20;;
43114;SDS011;28727;50.068;14.452;2022-08-02T14:32:43;111.77;;;106.27;;
43114;SDS011;28727;50.068;14.452;2022-08-02T14:35:15;108.27;;;103.27;;
43114;SDS011;28727;50.068;14.452;2022-08-02T14:37:46;107.43;;;102.37;;
43114;SDS011;28727;50.068;14.452;2022-08-02T14:40:18;108.87;;;103.77;;
43114;SDS011;28727;50.068;14.452;2022-08-02T14:43:02;111.80;;;106.53;;
43114;SDS011;28727;50.068;14.452;2022-08-02T14:45:34;110.37;;;105.20;;
43114;SDS011;28727;50.068;14.452;2022-08-02T14:48:11;105.40;;;100.50;;
43114;SDS011;28727;50.068;14.452;2022-08-02T14:50:43;110.57;;;105.43;;
43114;SDS011;28727;50.068;14.452;2022-08-02T14:53:14;108.13;;;103.17;;
43114;SDS011;28727;50.068;14.452;2022-08-02T14:55:46;109.80;;;104.70;;
43114;SDS011;28727;50.068;14.452;2022-08-02T14:58:18;106.33;;;101.27;;
43114;SDS011;28727;50.068;14.452;2022-08-02T15:00:49;107.47;;;102.50;;
43114;SDS011;28727;50.068;14.452;2022-08-02T15:03:22;105.70;;;100.70;;
43114;SDS011;28727;50.068;14.452;2022-08-02T15:05:54;110.33;;;105.17;;
43114;SDS011;28727;50.068;14.452;2022-08-02T15:08:26;103.53;;;98.87;;
43114;SDS011;28727;50.068;14.452;2022-08-02T15:10:58;106.43;;;101.50;;
43114;SDS011;28727;50.068;14.452;2022-08-02T15:13:29;107.33;;;102.40;;
43114;SDS011;28727;50.068;14.452;2022-08-02T15:16:01;105.90;;;100.93;;
43114;SDS011;28727;50.068;14.452;2022-08-02T15:18:33;107.03;;;102.03;;
43114;SDS011;28727;50.068;14.452;2022-08-02T15:21:05;109.67;;;104.67;;
43114;SDS011;28727;50.068;14.452;2022-08-02T15:23:57;109.53;;;104.47;;
43114;SDS011;28727;50.068;14.452;2022-08-02T15:26:28;105.33;;;100.53;;
43114;SDS011;28727;50.068;14.452;2022-08-02T15:29:00;110.67;;;105.63;;
43114;SDS011;28727;50.068;14.452;2022-08-02T15:31:32;106.97;;;102.03;;